Alturas, FL

3:28 PM EDT on September 16, 2014 (GMT -0400)
Lake Lizzy | Change Station
CLOSE
Current Station
Personal Weather Station
Location: Fort Meade, FL
Elevation: 167 ft
Nearby Weather Stations

Elev 167 ft 27.82 °N, 81.67 °W | Updated 8 minutes ago

Overcast
Overcast
85.1 °F
Feels Like 90 °F
N
12.5
Wind Variable Wind from West

Today
High -- | Low -- °F
--% Chance of Precip.
Yesterday
High -- | Low -- °F
Precip. -- in
7:12 AM 7:30 PM
Last Quarter, 43% visible
Pressure 30.04 in
Visibility 10.0 miles
Clouds Mostly Cloudy 3100 ft
Heat Index 90 °F
Dew Point 71 °F
Humidity 63%
Rainfall 0.00 in
Snow Depth Not available.
UV 6 out of 12
Pollen 7.30 out of 12
Ozone Good
PM2.5 Moderate
Flu Activity Not available.
METAR KBOW 161847Z 33010KT 10SM BKN031 31/21 A3004

More Conditions Fewer Conditions

Pressure 30.04 in
Visibility 10.0 miles
Clouds Mostly Cloudy 3100 ft
Heat Index 90 °F
Dew Point 71 °F
Humidity 63%
Rainfall 0.00 in
Snow Depth Not available.
UV 6 out of 12
Pollen 7.30 out of 12
Ozone Good
PM2.5 Moderate
Flu Activity Not available.
METAR KBOW 161847Z 33010KT 10SM BKN031 31/21 A3004

More Conditions Fewer Conditions

10-Day Weather Forecast

Almanac

Astronomy

Sep. 16, 2014 Rise Set
Actual Time 7:12 AM EDT 7:30 PM EDT
Civil Twilight 6:49 AM EDT 7:53 PM EDT
Nautical Twilight 6:21 AM EDT 8:21 PM EDT
Astronomical Twilight 5:53 AM EDT 8:48 PM EDT
Moon 12:42 AM EDT 2:31 PM EDT
Length of Visible Light 13h 04m
Length of Day
12h 17m
Tomorrow will be 1m 38s shorter.
Last Quarter, 43% of the Moon is Illuminated
Today
Last Quarter
Sep 24
New
Oct 1
First Quarter
Oct 8
Full
Oct 15
Last Quarter

Today's Extremes

State Highs State Lows

Community

WunderPhotos

Upload Photos

1,753,860 photos uploaded!

WunderBlogs® & News

Nearby

Air Quality

  Air Quality AQ Index Pollutant
Yesterday Good
PM10
Yesterday Good
OZONE
Current Moderate
PM2.5
Current Good
OZONE
Tuesday Good
PM2.5
Tuesday Good
OZONE

Snow Depth

Station Depth Elevation
No new snow has been reported.

Earthquake Activity

City Distance Mag. Time & Date
No recent earthquake activity has been reported nearby.
Minimum magnitude displayed is 2.5.

Coastal Water Temperatures

Place Temperature
No Stations Reporting

Nearby Weather Stations